Date,TemperatureHighF,TemperatureAvgF,TemperatureLowF,DewpointHighF,DewpointAvgF,DewpointLowF,HumidityHigh,HumidityAvg,HumidityLow,PressureMaxIn,PressureMinIn,WindSpeedMaxMPH,WindSpeedAvgMPH,GustSpeedMaxMPH,PrecipitationSumIn
2013-3-1,31.6,29.2,25.0,27.9,21.9,15.6,86,74,65,29.65,29.48,10,3,10,0.01
2013-3-2,29.1,25.4,23.7,18.1,16.1,13.7,76,68,57,29.63,29.57,8,3,8,0.00
2013-3-3,28.6,25.4,23.0,18.3,15.8,13.2,76,67,57,29.65,29.57,8,3,8,0.01
2013-3-4,41.7,28.4,20.7,20.0,14.2,10.1,73,56,37,29.77,29.66,8,3,8,0.00
2013-3-5,28.9,28.9,28.9,14.4,14.4,14.4,54,54,54,29.74,29.74,1,1,1,0.00
2013-3-6,43.0,35.3,30.9,31.3,26.2,21.4,86,70,54,29.78,29.36,8,2,8,0.22
2013-3-7,44.1,35.2,32.0,29.5,25.8,22.9,81,69,47,29.95,29.77,9,3,9,0.00
2013-3-8,42.6,32.9,27.7,27.1,23.1,19.2,76,67,53,30.07,29.94,8,3,8,0.00
2013-3-9,60.4,39.9,22.5,26.2,21.2,16.0,78,51,24,30.07,29.86,7,2,7,0.00
2013-3-10,72.7,56.7,44.1,30.5,24.1,16.9,37,29,17,29.86,29.69,10,4,10,0.00
2013-3-11,64.0,56.5,52.3,49.7,32.8,24.7,90,43,24,29.71,29.41,13,5,13,0.05
2013-3-15,36.0,29.3,26.1,20.0,17.9,13.3,66,62,52,29.80,29.66,7,3,7,0.00
2013-3-18,38.8,37.6,36.7,35.6,34.0,32.3,89,87,84,29.42,29.38,11,5,11,0.18
2013-3-19,46.9,37.6,29.1,42.0,25.7,13.3,99,65,28,29.64,29.38,12,5,12,0.06
2013-3-20,40.3,30.1,25.9,18.1,13.9,12.1,57,51,35,29.63,29.56,11,4,11,0.00
2013-3-21,46.8,44.9,25.9,24.5,18.2,16.1,66,34,31,30.24,29.93,8,4,8,0.00
2013-3-22,37.2,28.4,24.6,18.5,15.9,13.3,71,60,44,30.04,29.91,9,3,9,0.00
2013-3-23,48.4,34.1,23.0,23.3,18.8,14.0,74,55,32,30.06,30.00,8,2,8,0.00
2013-3-24,32.9,30.1,28.2,28.2,21.8,16.5,84,71,61,30.03,29.58,8,4,8,0.00
2013-3-25,39.4,33.3,30.2,35.4,30.8,27.7,95,91,81,29.73,29.50,6,3,6,0.45
2013-3-26,43.9,35.6,30.7,33.7,30.5,28.5,96,82,60,30.09,29.77,5,2,5,0.12
2013-3-27,44.1,35.5,31.6,31.7,28.9,25.1,93,78,48,30.19,30.08,6,2,9,0.05
2013-3-29,35.1,35.1,35.1,28.6,28.6,28.6,77,77,77,30.19,30.19,1,1,2,0.05